sensor_id;sensor_type;location;lat;lon;timestamp;temperature;humidity
71668;DHT22;59504;54.806;9.640;2023-03-11T00:01:31;0.60;73.40
71668;DHT22;59504;54.806;9.640;2023-03-11T00:03:52;0.50;73.40
71668;DHT22;59504;54.806;9.640;2023-03-11T00:06:13;0.70;73.60
71668;DHT22;59504;54.806;9.640;2023-03-11T00:08:33;0.60;73.60
71668;DHT22;59504;54.806;9.640;2023-03-11T00:10:37;0.60;73.70
71668;DHT22;59504;54.806;9.640;2023-03-11T00:12:59;0.60;73.80
71668;DHT22;59504;54.806;9.640;2023-03-11T00:15:19;0.60;73.90
71668;DHT22;59504;54.806;9.640;2023-03-11T00:17:40;0.50;73.90
71668;DHT22;59504;54.806;9.640;2023-03-11T00:19:43;0.60;74.00
71668;DHT22;59504;54.806;9.640;2023-03-11T00:22:04;0.60;74.50
71668;DHT22;59504;54.806;9.640;2023-03-11T00:24:25;0.60;74.10
71668;DHT22;59504;54.806;9.640;2023-03-11T00:26:46;0.50;73.90
71668;DHT22;59504;54.806;9.640;2023-03-11T00:29:06;0.60;73.90
71668;DHT22;59504;54.806;9.640;2023-03-11T00:31:30;0.60;74.30
71668;DHT22;59504;54.806;9.640;2023-03-11T00:33:31;0.60;74.70
71668;DHT22;59504;54.806;9.640;2023-03-11T00:35:52;0.60;74.20
71668;DHT22;59504;54.806;9.640;2023-03-11T00:38:15;0.60;74.10
71668;DHT22;59504;54.806;9.640;2023-03-11T00:40:36;0.60;74.20
71668;DHT22;59504;54.806;9.640;2023-03-11T00:42:57;0.50;74.20
71668;DHT22;59504;54.806;9.640;2023-03-11T00:45:21;0.50;74.10
71668;DHT22;59504;54.806;9.640;2023-03-11T00:47:43;0.40;74.30
71668;DHT22;59504;54.806;9.640;2023-03-11T00:50:07;0.50;74.20
71668;DHT22;59504;54.806;9.640;2023-03-11T00:52:29;0.40;74.20
71668;DHT22;59504;54.806;9.640;2023-03-11T00:54:49;0.50;74.30
71668;DHT22;59504;54.806;9.640;2023-03-11T00:57:10;0.50;74.40
71668;DHT22;59504;54.806;9.640;2023-03-11T00:59:11;0.50;75.20
71668;DHT22;59504;54.806;9.640;2023-03-11T01:01:17;0.50;74.50
71668;DHT22;59504;54.806;9.640;2023-03-11T01:03:18;0.50;74.40
71668;DHT22;59504;54.806;9.640;2023-03-11T01:05:21;0.40;74.90
71668;DHT22;59504;54.806;9.640;2023-03-11T01:07:23;0.50;74.40
71668;DHT22;59504;54.806;9.640;2023-03-11T01:09:41;0.40;74.50
71668;DHT22;59504;54.806;9.640;2023-03-11T01:11:58;0.40;74.60
71668;DHT22;59504;54.806;9.640;2023-03-11T01:14:12;0.30;74.50
71668;DHT22;59504;54.806;9.640;2023-03-11T01:16:35;0.40;74.60
71668;DHT22;59504;54.806;9.640;2023-03-11T01:18:56;0.40;74.50
71668;DHT22;59504;54.806;9.640;2023-03-11T01:21:17;0.30;74.40
71668;DHT22;59504;54.806;9.640;2023-03-11T01:23:41;0.40;74.40
71668;DHT22;59504;54.806;9.640;2023-03-11T01:26:05;0.30;74.40
71668;DHT22;59504;54.806;9.640;2023-03-11T01:28:26;0.30;74.30
71668;DHT22;59504;54.806;9.640;2023-03-11T01:30:46;0.30;74.20
71668;DHT22;59504;54.806;9.640;2023-03-11T01:33:15;0.40;74.40
71668;DHT22;59504;54.806;9.640;2023-03-11T01:35:36;0.30;74.20
71668;DHT22;59504;54.806;9.640;2023-03-11T01:38:02;0.30;74.10
71668;DHT22;59504;54.806;9.640;2023-03-11T01:40:37;0.20;74.00
71668;DHT22;59504;54.806;9.640;2023-03-11T01:42:41;0.30;74.10
71668;DHT22;59504;54.806;9.640;2023-03-11T01:44:44;0.30;74.10
71668;DHT22;59504;54.806;9.640;2023-03-11T01:49:01;0.20;74.10
71668;DHT22;59504;54.806;9.640;2023-03-11T01:53:45;0.20;74.30
71668;DHT22;59504;54.806;9.640;2023-03-11T01:55:53;0.10;74.30
71668;DHT22;59504;54.806;9.640;2023-03-11T01:58:23;0.10;74.30
71668;DHT22;59504;54.806;9.640;2023-03-11T02:00:45;0.00;74.10
71668;DHT22;59504;54.806;9.640;2023-03-11T02:03:10;0.00;74.10
71668;DHT22;59504;54.806;9.640;2023-03-11T02:05:31;0.10;74.20
71668;DHT22;59504;54.806;9.640;2023-03-11T02:07:55;-0.10;74.10
71668;DHT22;59504;54.806;9.640;2023-03-11T02:10:17;-0.10;74.20
71668;DHT22;59504;54.806;9.640;2023-03-11T02:12:38;-0.10;74.20
71668;DHT22;59504;54.806;9.640;2023-03-11T02:15:00;-0.10;74.10
71668;DHT22;59504;54.806;9.640;2023-03-11T02:17:21;-0.10;74.20
71668;DHT22;59504;54.806;9.640;2023-03-11T02:19:45;-0.10;74.30
71668;DHT22;59504;54.806;9.640;2023-03-11T02:21:53;-0.20;74.10
71668;DHT22;59504;54.806;9.640;2023-03-11T02:24:18;-0.10;74.10
71668;DHT22;59504;54.806;9.640;2023-03-11T02:29:10;-0.20;74.10
71668;DHT22;59504;54.806;9.640;2023-03-11T02:31:31;-0.30;74.10
71668;DHT22;59504;54.806;9.640;2023-03-11T02:33:53;-0.30;74.10
71668;DHT22;59504;54.806;9.640;2023-03-11T02:36:37;-0.20;74.00
71668;DHT22;59504;54.806;9.640;2023-03-11T02:39:01;-0.40;73.90
71668;DHT22;59504;54.806;9.640;2023-03-11T02:41:26;-0.30;73.90
71668;DHT22;59504;54.806;9.640;2023-03-11T02:43:47;-0.40;73.80
71668;DHT22;59504;54.806;9.640;2023-03-11T02:46:10;-0.40;73.70
71668;DHT22;59504;54.806;9.640;2023-03-11T02:48:32;-0.50;73.80
71668;DHT22;59504;54.806;9.640;2023-03-11T02:50:54;-0.40;73.80
71668;DHT22;59504;54.806;9.640;2023-03-11T02:53:15;-0.50;73.70
71668;DHT22;59504;54.806;9.640;2023-03-11T02:55:35;-0.40;73.70
71668;DHT22;59504;54.806;9.640;2023-03-11T02:57:56;-0.50;73.70
71668;DHT22;59504;54.806;9.640;2023-03-11T03:00:17;-0.50;73.70
71668;DHT22;59504;54.806;9.640;2023-03-11T03:02:44;-0.50;73.60
71668;DHT22;59504;54.806;9.640;2023-03-11T03:05:05;-0.60;73.50
71668;DHT22;59504;54.806;9.640;2023-03-11T03:07:26;-0.60;73.50
71668;DHT22;59504;54.806;9.640;2023-03-11T03:09:47;-0.60;73.50
71668;DHT22;59504;54.806;9.640;2023-03-11T03:12:07;-0.70;73.30
71668;DHT22;59504;54.806;9.640;2023-03-11T03:14:27;-0.70;73.30
71668;DHT22;59504;54.806;9.640;2023-03-11T03:16:48;-0.70;73.30
71668;DHT22;59504;54.806;9.640;2023-03-11T03:19:11;-0.70;73.20
71668;DHT22;59504;54.806;9.640;2023-03-11T03:21:16;-0.80;73.10
71668;DHT22;59504;54.806;9.640;2023-03-11T03:23:37;-0.80;73.20
71668;DHT22;59504;54.806;9.640;2023-03-11T03:25:58;-0.70;73.20
71668;DHT22;59504;54.806;9.640;2023-03-11T03:28:19;-0.80;73.20
71668;DHT22;59504;54.806;9.640;2023-03-11T03:30:40;-0.80;73.30
71668;DHT22;59504;54.806;9.640;2023-03-11T03:33:01;-0.90;73.30
71668;DHT22;59504;54.806;9.640;2023-03-11T03:35:24;-0.80;73.40
71668;DHT22;59504;54.806;9.640;2023-03-11T03:37:44;-0.90;73.40
71668;DHT22;59504;54.806;9.640;2023-03-11T03:40:06;-1.00;73.40
71668;DHT22;59504;54.806;9.640;2023-03-11T03:42:27;-1.00;73.50
71668;DHT22;59504;54.806;9.640;2023-03-11T03:44:51;-1.00;73.60
71668;DHT22;59504;54.806;9.640;2023-03-11T03:47:14;-1.10;73.90
71668;DHT22;59504;54.806;9.640;2023-03-11T03:49:15;-1.10;73.70
71668;DHT22;59504;54.806;9.640;2023-03-11T03:51:16;-1.10;74.00
71668;DHT22;59504;54.806;9.640;2023-03-11T03:53:17;-1.10;74.10
71668;DHT22;59504;54.806;9.640;2023-03-11T03:55:18;-1.10;74.30
71668;DHT22;59504;54.806;9.640;2023-03-11T03:57:19;-1.20;74.40
71668;DHT22;59504;54.806;9.640;2023-03-11T03:59:20;-1.10;75.20
71668;DHT22;59504;54.806;9.640;2023-03-11T04:01:20;-1.10;74.60
71668;DHT22;59504;54.806;9.640;2023-03-11T04:03:41;-1.10;74.60
71668;DHT22;59504;54.806;9.640;2023-03-11T04:06:28;-1.10;74.70
71668;DHT22;59504;54.806;9.640;2023-03-11T04:08:50;-1.10;74.80
71668;DHT22;59504;54.806;9.640;2023-03-11T04:11:12;-1.10;74.90
71668;DHT22;59504;54.806;9.640;2023-03-11T04:13:28;-1.10;74.90
71668;DHT22;59504;54.806;9.640;2023-03-11T04:15:49;-1.10;74.80
71668;DHT22;59504;54.806;9.640;2023-03-11T04:18:09;-1.10;74.80
71668;DHT22;59504;54.806;9.640;2023-03-11T04:20:30;-1.10;74.60
71668;DHT22;59504;54.806;9.640;2023-03-11T04:22:51;-1.10;74.40
71668;DHT22;59504;54.806;9.640;2023-03-11T04:24:51;-1.10;74.40
71668;DHT22;59504;54.806;9.640;2023-03-11T04:26:52;-1.10;74.40
71668;DHT22;59504;54.806;9.640;2023-03-11T04:28:53;-1.10;74.40
71668;DHT22;59504;54.806;9.640;2023-03-11T04:30:54;-1.10;74.40
71668;DHT22;59504;54.806;9.640;2023-03-11T04:32:54;-1.20;74.20
71668;DHT22;59504;54.806;9.640;2023-03-11T04:34:56;-1.20;74.20
71668;DHT22;59504;54.806;9.640;2023-03-11T04:37:17;-1.20;74.20
71668;DHT22;59504;54.806;9.640;2023-03-11T04:39:37;-1.20;74.10
71668;DHT22;59504;54.806;9.640;2023-03-11T04:41:58;-1.20;74.10
71668;DHT22;59504;54.806;9.640;2023-03-11T04:44:19;-1.20;74.00
71668;DHT22;59504;54.806;9.640;2023-03-11T04:46:39;-1.30;74.00
71668;DHT22;59504;54.806;9.640;2023-03-11T04:49:00;-1.30;73.90
71668;DHT22;59504;54.806;9.640;2023-03-11T04:51:21;-1.30;73.90
71668;DHT22;59504;54.806;9.640;2023-03-11T04:53:41;-1.30;74.10
71668;DHT22;59504;54.806;9.640;2023-03-11T04:56:02;-1.40;74.20
71668;DHT22;59504;54.806;9.640;2023-03-11T04:58:23;-1.40;74.30
71668;DHT22;59504;54.806;9.640;2023-03-11T05:00:43;-1.40;74.20
71668;DHT22;59504;54.806;9.640;2023-03-11T05:03:04;-1.40;74.20
71668;DHT22;59504;54.806;9.640;2023-03-11T05:05:25;-1.40;74.20
71668;DHT22;59504;54.806;9.640;2023-03-11T05:07:46;-1.40;74.30
71668;DHT22;59504;54.806;9.640;2023-03-11T05:10:07;-1.40;74.30
71668;DHT22;59504;54.806;9.640;2023-03-11T05:12:13;-1.50;74.40
71668;DHT22;59504;54.806;9.640;2023-03-11T05:14:13;-1.50;74.40
71668;DHT22;59504;54.806;9.640;2023-03-11T05:16:14;-1.50;74.30
71668;DHT22;59504;54.806;9.640;2023-03-11T05:18:15;-1.50;74.40
71668;DHT22;59504;54.806;9.640;2023-03-11T05:20:16;-1.50;74.40
71668;DHT22;59504;54.806;9.640;2023-03-11T05:22:17;-1.50;74.60
71668;DHT22;59504;54.806;9.640;2023-03-11T05:24:18;-1.50;74.60
71668;DHT22;59504;54.806;9.640;2023-03-11T05:26:19;-1.40;74.60
71668;DHT22;59504;54.806;9.640;2023-03-11T05:28:22;-1.50;74.50
71668;DHT22;59504;54.806;9.640;2023-03-11T05:30:23;-1.50;74.60
71668;DHT22;59504;54.806;9.640;2023-03-11T05:32:26;-1.40;74.40
71668;DHT22;59504;54.806;9.640;2023-03-11T05:34:27;-1.50;74.40
71668;DHT22;59504;54.806;9.640;2023-03-11T05:36:27;-1.50;74.40
71668;DHT22;59504;54.806;9.640;2023-03-11T05:38:28;-1.60;74.40
71668;DHT22;59504;54.806;9.640;2023-03-11T05:40:32;-1.50;74.40
71668;DHT22;59504;54.806;9.640;2023-03-11T05:42:33;-1.50;74.40
71668;DHT22;59504;54.806;9.640;2023-03-11T05:44:34;-1.50;74.50
71668;DHT22;59504;54.806;9.640;2023-03-11T05:46:35;-1.50;74.50
71668;DHT22;59504;54.806;9.640;2023-03-11T05:48:36;-1.60;74.40
71668;DHT22;59504;54.806;9.640;2023-03-11T05:50:37;-1.70;74.30
71668;DHT22;59504;54.806;9.640;2023-03-11T05:52:37;-1.70;74.40
71668;DHT22;59504;54.806;9.640;2023-03-11T05:54:44;-1.60;74.50
71668;DHT22;59504;54.806;9.640;2023-03-11T05:56:48;-1.60;74.50
71668;DHT22;59504;54.806;9.640;2023-03-11T05:58:49;-1.70;74.40
71668;DHT22;59504;54.806;9.640;2023-03-11T06:00:49;-1.70;74.40
71668;DHT22;59504;54.806;9.640;2023-03-11T06:02:50;-1.70;74.20
71668;DHT22;59504;54.806;9.640;2023-03-11T06:04:51;-1.70;74.20
71668;DHT22;59504;54.806;9.640;2023-03-11T06:06:58;-1.60;74.40
71668;DHT22;59504;54.806;9.640;2023-03-11T06:08:59;-1.60;74.40
71668;DHT22;59504;54.806;9.640;2023-03-11T06:11:06;-1.70;74.20
71668;DHT22;59504;54.806;9.640;2023-03-11T06:13:08;-1.70;74.10
71668;DHT22;59504;54.806;9.640;2023-03-11T06:15:09;-1.70;74.10
71668;DHT22;59504;54.806;9.640;2023-03-11T06:17:10;-1.60;74.10
71668;DHT22;59504;54.806;9.640;2023-03-11T06:19:11;-1.70;74.00
71668;DHT22;59504;54.806;9.640;2023-03-11T06:21:19;-1.70;73.80
71668;DHT22;59504;54.806;9.640;2023-03-11T06:23:25;-1.70;74.60
71668;DHT22;59504;54.806;9.640;2023-03-11T06:25:26;-1.60;73.80
71668;DHT22;59504;54.806;9.640;2023-03-11T06:27:26;-1.60;73.70
71668;DHT22;59504;54.806;9.640;2023-03-11T06:29:27;-1.70;73.60
71668;DHT22;59504;54.806;9.640;2023-03-11T06:31:30;-1.60;73.40
71668;DHT22;59504;54.806;9.640;2023-03-11T06:33:31;-1.50;73.70
71668;DHT22;59504;54.806;9.640;2023-03-11T06:35:43;-1.60;73.30
71668;DHT22;59504;54.806;9.640;2023-03-11T06:37:44;-1.50;73.30
71668;DHT22;59504;54.806;9.640;2023-03-11T06:39:50;-1.60;73.20
71668;DHT22;59504;54.806;9.640;2023-03-11T06:41:51;-1.50;73.30
71668;DHT22;59504;54.806;9.640;2023-03-11T06:43:52;-1.50;73.40
71668;DHT22;59504;54.806;9.640;2023-03-11T06:45:52;-1.40;74.20
71668;DHT22;59504;54.806;9.640;2023-03-11T06:48:15;-1.40;73.10
71668;DHT22;59504;54.806;9.640;2023-03-11T06:50:16;-1.50;73.00
71668;DHT22;59504;54.806;9.640;2023-03-11T06:52:53;-1.50;72.80
71668;DHT22;59504;54.806;9.640;2023-03-11T06:54:59;-1.40;72.80
71668;DHT22;59504;54.806;9.640;2023-03-11T06:57:00;-1.40;72.60
71668;DHT22;59504;54.806;9.640;2023-03-11T06:59:04;-1.40;73.30
71668;DHT22;59504;54.806;9.640;2023-03-11T07:01:13;-1.30;72.50
71668;DHT22;59504;54.806;9.640;2023-03-11T07:03:15;-1.30;72.60
71668;DHT22;59504;54.806;9.640;2023-03-11T07:05:16;-1.20;72.50
71668;DHT22;59504;54.806;9.640;2023-03-11T07:07:19;-1.30;72.30
71668;DHT22;59504;54.806;9.640;2023-03-11T07:09:20;-1.20;72.30
71668;DHT22;59504;54.806;9.640;2023-03-11T07:11:27;-1.10;72.20
71668;DHT22;59504;54.806;9.640;2023-03-11T07:13:28;-1.10;72.10
71668;DHT22;59504;54.806;9.640;2023-03-11T07:15:28;-1.00;71.90
71668;DHT22;59504;54.806;9.640;2023-03-11T07:17:29;-1.10;71.80
71668;DHT22;59504;54.806;9.640;2023-03-11T07:19:33;-1.00;71.50
71668;DHT22;59504;54.806;9.640;2023-03-11T07:21:33;-1.10;71.20
71668;DHT22;59504;54.806;9.640;2023-03-11T07:23:34;-0.90;71.40
71668;DHT22;59504;54.806;9.640;2023-03-11T07:25:45;-1.00;71.20
71668;DHT22;59504;54.806;9.640;2023-03-11T07:27:48;-0.90;71.20
71668;DHT22;59504;54.806;9.640;2023-03-11T07:29:49;-0.90;71.10
71668;DHT22;59504;54.806;9.640;2023-03-11T07:31:49;-0.90;71.00
71668;DHT22;59504;54.806;9.640;2023-03-11T07:33:50;-0.80;71.20
71668;DHT22;59504;54.806;9.640;2023-03-11T07:35:51;-0.80;71.00
71668;DHT22;59504;54.806;9.640;2023-03-11T07:37:52;-0.80;70.90
71668;DHT22;59504;54.806;9.640;2023-03-11T07:39:53;-0.70;70.90
71668;DHT22;59504;54.806;9.640;2023-03-11T07:41:57;-0.60;70.80
71668;DHT22;59504;54.806;9.640;2023-03-11T07:44:04;-0.50;70.80
71668;DHT22;59504;54.806;9.640;2023-03-11T07:46:13;-0.60;70.50
71668;DHT22;59504;54.806;9.640;2023-03-11T07:48:19;-0.50;70.50
71668;DHT22;59504;54.806;9.640;2023-03-11T07:50:45;-0.40;70.30
71668;DHT22;59504;54.806;9.640;2023-03-11T07:53:06;-0.30;70.10
71668;DHT22;59504;54.806;9.640;2023-03-11T07:55:27;-0.30;69.80
71668;DHT22;59504;54.806;9.640;2023-03-11T07:57:48;-0.30;69.70
71668;DHT22;59504;54.806;9.640;2023-03-11T08:00:14;-0.20;69.50
71668;DHT22;59504;54.806;9.640;2023-03-11T08:02:40;-0.20;69.40
71668;DHT22;59504;54.806;9.640;2023-03-11T08:05:09;-0.20;69.50
71668;DHT22;59504;54.806;9.640;2023-03-11T08:07:31;-0.10;69.00
71668;DHT22;59504;54.806;9.640;2023-03-11T08:09:55;0.00;69.00
71668;DHT22;59504;54.806;9.640;2023-03-11T08:12:18;0.00;68.90
71668;DHT22;59504;54.806;9.640;2023-03-11T08:14:39;0.00;68.70
71668;DHT22;59504;54.806;9.640;2023-03-11T08:17:04;0.20;68.60
71668;DHT22;59504;54.806;9.640;2023-03-11T08:19:11;0.20;68.40
71668;DHT22;59504;54.806;9.640;2023-03-11T08:21:14;0.30;68.20
71668;DHT22;59504;54.806;9.640;2023-03-11T08:23:20;0.20;68.10
71668;DHT22;59504;54.806;9.640;2023-03-11T08:25:24;0.40;67.90
71668;DHT22;59504;54.806;9.640;2023-03-11T08:27:27;0.30;67.70
71668;DHT22;59504;54.806;9.640;2023-03-11T08:29:31;0.40;67.50
71668;DHT22;59504;54.806;9.640;2023-03-11T08:31:35;0.50;67.50
71668;DHT22;59504;54.806;9.640;2023-03-11T08:33:38;0.60;66.50
71668;DHT22;59504;54.806;9.640;2023-03-11T08:35:44;0.60;66.80
71668;DHT22;59504;54.806;9.640;2023-03-11T08:37:45;0.70;66.60
71668;DHT22;59504;54.806;9.640;2023-03-11T08:39:46;0.70;66.20
71668;DHT22;59504;54.806;9.640;2023-03-11T08:41:47;0.80;65.80
71668;DHT22;59504;54.806;9.640;2023-03-11T08:43:53;0.80;65.60
71668;DHT22;59504;54.806;9.640;2023-03-11T08:45:54;0.80;65.30
71668;DHT22;59504;54.806;9.640;2023-03-11T08:47:55;0.90;65.20
71668;DHT22;59504;54.806;9.640;2023-03-11T08:49:58;0.90;64.60
71668;DHT22;59504;54.806;9.640;2023-03-11T08:52:06;1.00;64.50
71668;DHT22;59504;54.806;9.640;2023-03-11T08:54:07;1.00;64.40
71668;DHT22;59504;54.806;9.640;2023-03-11T08:56:07;1.10;64.50
71668;DHT22;59504;54.806;9.640;2023-03-11T08:58:09;1.20;65.00
71668;DHT22;59504;54.806;9.640;2023-03-11T09:00:11;1.00;63.80
71668;DHT22;59504;54.806;9.640;2023-03-11T09:02:12;1.20;63.60
71668;DHT22;59504;54.806;9.640;2023-03-11T09:04:13;1.20;63.30
71668;DHT22;59504;54.806;9.640;2023-03-11T09:06:14;1.30;63.50
71668;DHT22;59504;54.806;9.640;2023-03-11T09:08:15;1.40;63.50
71668;DHT22;59504;54.806;9.640;2023-03-11T09:10:17;1.40;63.40
71668;DHT22;59504;54.806;9.640;2023-03-11T09:12:18;1.50;63.50
71668;DHT22;59504;54.806;9.640;2023-03-11T09:14:18;1.60;63.10
71668;DHT22;59504;54.806;9.640;2023-03-11T09:16:21;1.60;62.90
71668;DHT22;59504;54.806;9.640;2023-03-11T09:18:25;1.70;63.10
71668;DHT22;59504;54.806;9.640;2023-03-11T09:20:29;1.80;62.80
71668;DHT22;59504;54.806;9.640;2023-03-11T09:22:29;1.80;62.50
71668;DHT22;59504;54.806;9.640;2023-03-11T09:24:34;1.90;62.50
71668;DHT22;59504;54.806;9.640;2023-03-11T09:26:37;2.00;62.40
71668;DHT22;59504;54.806;9.640;2023-03-11T09:28:44;2.10;62.30
71668;DHT22;59504;54.806;9.640;2023-03-11T09:30:48;2.10;61.90
71668;DHT22;59504;54.806;9.640;2023-03-11T09:32:51;2.30;62.20
71668;DHT22;59504;54.806;9.640;2023-03-11T09:34:52;2.30;62.00
71668;DHT22;59504;54.806;9.640;2023-03-11T09:36:56;2.30;61.40
71668;DHT22;59504;54.806;9.640;2023-03-11T09:38:56;2.40;61.10
71668;DHT22;59504;54.806;9.640;2023-03-11T09:41:18;2.50;60.30
71668;DHT22;59504;54.806;9.640;2023-03-11T09:45:45;2.60;60.70
71668;DHT22;59504;54.806;9.640;2023-03-11T09:50:39;2.80;61.60
71668;DHT22;59504;54.806;9.640;2023-03-11T09:53:09;2.80;61.00
71668;DHT22;59504;54.806;9.640;2023-03-11T09:55:40;2.90;60.90
71668;DHT22;59504;54.806;9.640;2023-03-11T09:57:42;3.00;61.30
71668;DHT22;59504;54.806;9.640;2023-03-11T09:59:44;3.10;60.50
71668;DHT22;59504;54.806;9.640;2023-03-11T10:01:48;3.10;59.90
71668;DHT22;59504;54.806;9.640;2023-03-11T10:03:51;3.20;59.80
71668;DHT22;59504;54.806;9.640;2023-03-11T10:06:00;3.30;60.20
71668;DHT22;59504;54.806;9.640;2023-03-11T10:08:09;3.40;60.10
71668;DHT22;59504;54.806;9.640;2023-03-11T10:10:14;3.40;59.70
71668;DHT22;59504;54.806;9.640;2023-03-11T10:19:29;3.70;59.40
71668;DHT22;59504;54.806;9.640;2023-03-11T10:21:46;3.70;58.80
71668;DHT22;59504;54.806;9.640;2023-03-11T10:26:18;3.90;59.40
71668;DHT22;59504;54.806;9.640;2023-03-11T10:28:23;3.90;58.90
71668;DHT22;59504;54.806;9.640;2023-03-11T10:30:29;4.00;58.70
71668;DHT22;59504;54.806;9.640;2023-03-11T10:32:39;4.00;58.60
71668;DHT22;59504;54.806;9.640;2023-03-11T10:34:48;4.00;58.40
71668;DHT22;59504;54.806;9.640;2023-03-11T10:37:02;4.10;58.40
71668;DHT22;59504;54.806;9.640;2023-03-11T10:39:05;4.10;58.00
71668;DHT22;59504;54.806;9.640;2023-03-11T10:41:14;4.20;57.80
71668;DHT22;59504;54.806;9.640;2023-03-11T10:43:32;4.20;57.80
71668;DHT22;59504;54.806;9.640;2023-03-11T10:45:38;4.30;57.50
71668;DHT22;59504;54.806;9.640;2023-03-11T10:47:40;4.30;57.50
71668;DHT22;59504;54.806;9.640;2023-03-11T10:49:41;4.40;57.90
71668;DHT22;59504;54.806;9.640;2023-03-11T10:51:47;4.40;57.60
71668;DHT22;59504;54.806;9.640;2023-03-11T10:53:55;4.40;57.40
71668;DHT22;59504;54.806;9.640;2023-03-11T10:55:57;4.50;57.30
71668;DHT22;59504;54.806;9.640;2023-03-11T10:58:09;4.50;57.20
71668;DHT22;59504;54.806;9.640;2023-03-11T11:00:14;4.60;57.40
71668;DHT22;59504;54.806;9.640;2023-03-11T11:02:40;4.60;56.80
71668;DHT22;59504;54.806;9.640;2023-03-11T11:05:01;4.70;57.10
71668;DHT22;59504;54.806;9.640;2023-03-11T11:07:27;4.70;56.30
71668;DHT22;59504;54.806;9.640;2023-03-11T11:09:28;4.80;56.20
71668;DHT22;59504;54.806;9.640;2023-03-11T11:11:31;4.90;56.20
71668;DHT22;59504;54.806;9.640;2023-03-11T11:13:33;4.90;56.40
71668;DHT22;59504;54.806;9.640;2023-03-11T11:15:36;5.00;56.10
71668;DHT22;59504;54.806;9.640;2023-03-11T11:17:38;5.00;55.30
71668;DHT22;59504;54.806;9.640;2023-03-11T11:19:44;5.00;55.30
71668;DHT22;59504;54.806;9.640;2023-03-11T11:21:49;5.10;55.60
71668;DHT22;59504;54.806;9.640;2023-03-11T11:26:05;5.20;55.20
71668;DHT22;59504;54.806;9.640;2023-03-11T11:28:24;5.20;54.30
71668;DHT22;59504;54.806;9.640;2023-03-11T11:30:26;5.30;54.90
71668;DHT22;59504;54.806;9.640;2023-03-11T11:32:27;5.30;54.90
71668;DHT22;59504;54.806;9.640;2023-03-11T11:34:35;5.40;54.80
71668;DHT22;59504;54.806;9.640;2023-03-11T11:36:36;5.50;54.60
71668;DHT22;59504;54.806;9.640;2023-03-11T11:38:38;5.40;54.00
71668;DHT22;59504;54.806;9.640;2023-03-11T11:40:39;5.50;53.80
71668;DHT22;59504;54.806;9.640;2023-03-11T11:42:49;5.40;54.10
71668;DHT22;59504;54.806;9.640;2023-03-11T11:45:01;5.40;57.30
71668;DHT22;59504;54.806;9.640;2023-03-11T11:47:15;5.30;58.70
71668;DHT22;59504;54.806;9.640;2023-03-11T11:49:23;5.20;59.60
71668;DHT22;59504;54.806;9.640;2023-03-11T11:51:40;5.10;60.20
71668;DHT22;59504;54.806;9.640;2023-03-11T11:53:54;5.00;60.10
71668;DHT22;59504;54.806;9.640;2023-03-11T11:55:56;5.00;60.90
71668;DHT22;59504;54.806;9.640;2023-03-11T11:57:57;4.90;62.20
71668;DHT22;59504;54.806;9.640;2023-03-11T11:59:58;4.80;62.70
71668;DHT22;59504;54.806;9.640;2023-03-11T12:04:25;4.70;63.80
71668;DHT22;59504;54.806;9.640;2023-03-11T12:06:48;4.70;63.70
71668;DHT22;59504;54.806;9.640;2023-03-11T12:09:05;4.70;64.10
71668;DHT22;59504;54.806;9.640;2023-03-11T12:11:36;4.70;63.90
71668;DHT22;59504;54.806;9.640;2023-03-11T12:13:57;4.70;63.30
71668;DHT22;59504;54.806;9.640;2023-03-11T12:19:03;4.80;63.00
71668;DHT22;59504;54.806;9.640;2023-03-11T12:26:11;4.90;62.10
71668;DHT22;59504;54.806;9.640;2023-03-11T12:28:36;4.90;61.80
71668;DHT22;59504;54.806;9.640;2023-03-11T12:30:41;5.00;62.00
71668;DHT22;59504;54.806;9.640;2023-03-11T12:32:48;5.00;61.90
71668;DHT22;59504;54.806;9.640;2023-03-11T12:34:49;5.00;61.60
71668;DHT22;59504;54.806;9.640;2023-03-11T12:36:59;5.00;61.90
71668;DHT22;59504;54.806;9.640;2023-03-11T12:39:05;5.10;62.10
71668;DHT22;59504;54.806;9.640;2023-03-11T12:41:37;5.10;61.60
71668;DHT22;59504;54.806;9.640;2023-03-11T12:45:46;5.20;60.30
71668;DHT22;59504;54.806;9.640;2023-03-11T12:50:45;5.20;58.30
71668;DHT22;59504;54.806;9.640;2023-03-11T12:52:53;5.10;59.50
71668;DHT22;59504;54.806;9.640;2023-03-11T13:04:41;5.00;61.50
71668;DHT22;59504;54.806;9.640;2023-03-11T13:07:27;5.00;61.50
71668;DHT22;59504;54.806;9.640;2023-03-11T13:09:30;5.00;60.10
71668;DHT22;59504;54.806;9.640;2023-03-11T13:13:38;5.10;59.60
71668;DHT22;59504;54.806;9.640;2023-03-11T13:15:39;5.20;60.00
71668;DHT22;59504;54.806;9.640;2023-03-11T13:17:54;5.20;60.00
71668;DHT22;59504;54.806;9.640;2023-03-11T13:19:57;5.20;60.00
71668;DHT22;59504;54.806;9.640;2023-03-11T13:21:59;5.30;59.80
71668;DHT22;59504;54.806;9.640;2023-03-11T13:26:39;5.40;59.70
71668;DHT22;59504;54.806;9.640;2023-03-11T13:31:20;5.50;59.80
71668;DHT22;59504;54.806;9.640;2023-03-11T13:33:52;5.40;60.30
71668;DHT22;59504;54.806;9.640;2023-03-11T13:40:41;5.10;61.10
71668;DHT22;59504;54.806;9.640;2023-03-11T13:42:50;4.90;61.40
71668;DHT22;59504;54.806;9.640;2023-03-11T13:44:58;4.80;62.20
71668;DHT22;59504;54.806;9.640;2023-03-11T13:47:20;4.70;62.60
71668;DHT22;59504;54.806;9.640;2023-03-11T13:49:43;4.50;63.50
71668;DHT22;59504;54.806;9.640;2023-03-11T13:52:15;4.50;64.40
71668;DHT22;59504;54.806;9.640;2023-03-11T13:54:57;4.50;65.40
71668;DHT22;59504;54.806;9.640;2023-03-11T13:57:48;4.40;66.80
71668;DHT22;59504;54.806;9.640;2023-03-11T14:03:01;4.40;66.60
71668;DHT22;59504;54.806;9.640;2023-03-11T14:08:28;4.40;66.60
71668;DHT22;59504;54.806;9.640;2023-03-11T14:11:36;4.40;66.80
71668;DHT22;59504;54.806;9.640;2023-03-11T14:14:28;4.40;66.90
71668;DHT22;59504;54.806;9.640;2023-03-11T14:17:12;4.40;67.10
71668;DHT22;59504;54.806;9.640;2023-03-11T14:22:27;4.40;67.30
71668;DHT22;59504;54.806;9.640;2023-03-11T14:24:34;4.40;67.30
71668;DHT22;59504;54.806;9.640;2023-03-11T14:26:40;4.50;67.40
71668;DHT22;59504;54.806;9.640;2023-03-11T14:29:06;4.50;67.70
71668;DHT22;59504;54.806;9.640;2023-03-11T14:31:22;4.40;67.50
71668;DHT22;59504;54.806;9.640;2023-03-11T14:33:30;4.60;67.60
71668;DHT22;59504;54.806;9.640;2023-03-11T14:35:33;4.50;67.30
71668;DHT22;59504;54.806;9.640;2023-03-11T14:37:38;4.60;66.90
71668;DHT22;59504;54.806;9.640;2023-03-11T14:39:46;4.60;66.60
71668;DHT22;59504;54.806;9.640;2023-03-11T14:41:47;4.60;66.20
71668;DHT22;59504;54.806;9.640;2023-03-11T14:43:52;4.60;65.80
71668;DHT22;59504;54.806;9.640;2023-03-11T14:45:56;4.50;65.70
71668;DHT22;59504;54.806;9.640;2023-03-11T14:48:11;4.40;65.40
71668;DHT22;59504;54.806;9.640;2023-03-11T14:50:45;4.50;64.80
71668;DHT22;59504;54.806;9.640;2023-03-11T14:54:01;4.50;64.80
71668;DHT22;59504;54.806;9.640;2023-03-11T14:56:21;4.40;64.90
71668;DHT22;59504;54.806;9.640;2023-03-11T15:01:02;4.40;65.10
71668;DHT22;59504;54.806;9.640;2023-03-11T15:03:28;4.50;65.00
71668;DHT22;59504;54.806;9.640;2023-03-11T15:06:19;4.40;64.90
71668;DHT22;59504;54.806;9.640;2023-03-11T15:08:59;4.40;65.00
71668;DHT22;59504;54.806;9.640;2023-03-11T15:11:22;4.30;64.50
71668;DHT22;59504;54.806;9.640;2023-03-11T15:13:46;4.30;64.80
71668;DHT22;59504;54.806;9.640;2023-03-11T15:18:42;4.30;65.00